Главная страница
METAR-TAF:

METAR-TAF

Аэропорты :

Франклин округ, Вермонт, США

широта: 44-56-25N, долгота: 073-05-51W, высота над уровнем моря: 69 м

Текущие метеонаблюдения

Эта сводка был подготовлена 7 минут назад, в 06:15 UTC
Штиль
Температура 15°C
Влажность 77%
Давление 1014 hPa
Видимость: 16.1 км
ясное небо

METAR: KFSO 230615Z AUTO 00000KT 10SM CLR 15/11 A2995 RMK AO2 T01460111

Время: 02:22 (06:22 UTC)


TAF: отсутствует

Метеонаблюдения и прогнозы для более 4000 аэропортов (сводки METAR и TAF).

Имеющиеся станции представлены на карте желтыми и красными точками.

Чтобы увидеть название станции, наведите на нее мышь.

Затем щелкните, чтобы увидеть метеонаблюдения и метеопрогнозы.

Управление картой: чтобы увеличить масштаб, щелкните зеленые кнопки с черным крестиком; чтобы уменьшить масштаб, щелкните зеленую кнопку с тире; для просмотра соседних карт щелкайте зеленые стрелки.


METAR-TAF: